createdAt,value
2018-07-04T00:00:05.996Z,6.437376
2018-07-04T00:00:18.467Z,6.437376
2018-07-04T00:00:30.885Z,6.437376
2018-07-04T00:00:43.285Z,6.437376
2018-07-04T00:00:55.685Z,6.437376
2018-07-04T00:01:08.138Z,3.218688
2018-07-04T00:01:20.672Z,3.218688
2018-07-04T00:01:33.185Z,3.218688
2018-07-04T00:01:45.578Z,3.218688
2018-07-04T00:01:57.969Z,3.218688
2018-07-04T00:02:10.369Z,1.609344
2018-07-04T00:02:22.775Z,1.609344
2018-07-04T00:02:35.169Z,3.218688
2018-07-04T00:02:47.596Z,3.218688
2018-07-04T00:03:00.010Z,4.828032
2018-07-04T00:03:12.417Z,8.04672
2018-07-04T00:03:24.803Z,8.04672
2018-07-04T00:03:37.196Z,8.04672
2018-07-04T00:03:49.616Z,8.04672
2018-07-04T00:04:02.017Z,8.04672
2018-07-04T00:04:14.466Z,3.218688
2018-07-04T00:04:26.848Z,3.218688
2018-07-04T00:04:39.260Z,3.218688
2018-07-04T00:04:51.644Z,3.218688
2018-07-04T00:05:04.060Z,3.218688
2018-07-04T00:05:16.460Z,0
2018-07-04T00:05:28.943Z,1.609344
2018-07-04T00:05:41.362Z,1.609344
2018-07-04T00:05:53.802Z,1.609344
2018-07-04T00:06:06.200Z,0
2018-07-04T00:06:18.599Z,1.609344
2018-07-04T00:06:30.994Z,1.609344
2018-07-04T00:06:43.384Z,1.609344
2018-07-04T00:06:55.791Z,1.609344
2018-07-04T00:07:08.357Z,1.609344
2018-07-04T00:07:20.809Z,3.218688
2018-07-04T00:07:33.210Z,3.218688
2018-07-04T00:07:45.607Z,3.218688
2018-07-04T00:07:57.999Z,3.218688
2018-07-04T00:08:10.465Z,1.609344
2018-07-04T00:08:22.870Z,1.609344
2018-07-04T00:08:35.262Z,3.218688
2018-07-04T00:08:47.698Z,3.218688
2018-07-04T00:09:00.271Z,4.828032
2018-07-04T00:09:12.681Z,3.218688
2018-07-04T00:09:25.077Z,3.218688
2018-07-04T00:09:37.476Z,3.218688
2018-07-04T00:09:49.867Z,3.218688
2018-07-04T00:10:02.289Z,3.218688
2018-07-04T00:10:14.692Z,3.218688
2018-07-04T00:10:27.093Z,6.437376
2018-07-04T00:10:39.523Z,11.265408
2018-07-04T00:10:51.923Z,11.265408
2018-07-04T00:11:04.327Z,6.437376
2018-07-04T00:11:16.723Z,6.437376
2018-07-04T00:11:29.123Z,6.437376
2018-07-04T00:11:41.527Z,6.437376
2018-07-04T00:11:53.921Z,6.437376
2018-07-04T00:12:06.322Z,3.218688
2018-07-04T00:12:18.758Z,3.218688
2018-07-04T00:12:31.164Z,3.218688
2018-07-04T00:12:43.565Z,3.218688
2018-07-04T00:12:56.011Z,3.218688
2018-07-04T00:13:08.875Z,9.656064
2018-07-04T00:13:21.281Z,9.656064
2018-07-04T00:13:33.692Z,9.656064
2018-07-04T00:13:46.107Z,9.656064
2018-07-04T00:13:58.522Z,9.656064
2018-07-04T00:14:10.957Z,3.218688
2018-07-04T00:14:23.362Z,3.218688
2018-07-04T00:14:35.797Z,3.218688
2018-07-04T00:14:48.183Z,6.437376
2018-07-04T00:15:00.587Z,6.437376
2018-07-04T00:15:13.037Z,3.218688
2018-07-04T00:15:25.435Z,3.218688
2018-07-04T00:15:37.840Z,3.218688
2018-07-04T00:15:50.256Z,4.828032
2018-07-04T00:16:02.653Z,4.828032
2018-07-04T00:16:15.049Z,1.609344
2018-07-04T00:16:27.448Z,3.218688
2018-07-04T00:16:39.847Z,3.218688
2018-07-04T00:16:52.236Z,3.218688
2018-07-04T00:17:04.638Z,1.609344
2018-07-04T00:17:17.026Z,1.609344
2018-07-04T00:17:29.425Z,1.609344
2018-07-04T00:17:41.813Z,6.437376
2018-07-04T00:17:54.205Z,9.656064
2018-07-04T00:18:06.619Z,8.04672
2018-07-04T00:18:19.016Z,8.04672
2018-07-04T00:18:31.422Z,8.04672
2018-07-04T00:18:43.818Z,8.04672
2018-07-04T00:18:56.209Z,8.04672
2018-07-04T00:19:08.685Z,1.609344
2018-07-04T00:19:21.102Z,3.218688
2018-07-04T00:19:33.499Z,3.218688
2018-07-04T00:19:45.894Z,3.218688
2018-07-04T00:19:58.383Z,3.218688
2018-07-04T00:20:10.794Z,1.609344
2018-07-04T00:20:23.204Z,1.609344
2018-07-04T00:20:35.609Z,1.609344
2018-07-04T00:20:48.018Z,1.609344
2018-07-04T00:21:00.417Z,1.609344
2018-07-04T00:21:12.828Z,1.609344
2018-07-04T00:21:25.238Z,1.609344
2018-07-04T00:21:37.646Z,1.609344
2018-07-04T00:21:50.039Z,1.609344
2018-07-04T00:22:02.427Z,1.609344
2018-07-04T00:22:14.835Z,1.609344
2018-07-04T00:22:27.237Z,3.218688
2018-07-04T00:22:39.646Z,3.218688
2018-07-04T00:22:52.037Z,3.218688
2018-07-04T00:23:04.435Z,1.609344
2018-07-04T00:23:16.822Z,1.609344
2018-07-04T00:23:29.246Z,1.609344
2018-07-04T00:23:41.667Z,3.218688
2018-07-04T00:23:54.081Z,8.04672
2018-07-04T00:24:06.492Z,6.437376
2018-07-04T00:24:18.892Z,6.437376
2018-07-04T00:24:31.325Z,6.437376
2018-07-04T00:24:43.726Z,6.437376
2018-07-04T00:24:56.134Z,6.437376
2018-07-04T00:25:08.528Z,1.609344
2018-07-04T00:25:20.919Z,1.609344
2018-07-04T00:25:33.453Z,3.218688
2018-07-04T00:25:46.676Z,3.218688
2018-07-04T00:25:59.224Z,3.218688
2018-07-04T00:26:11.627Z,6.437376
2018-07-04T00:26:24.043Z,6.437376
2018-07-04T00:26:36.496Z,6.437376
2018-07-04T00:26:48.905Z,6.437376
2018-07-04T00:27:01.315Z,6.437376
2018-07-04T00:27:13.732Z,3.218688
2018-07-04T00:27:26.144Z,3.218688
2018-07-04T00:27:38.553Z,3.218688
2018-07-04T00:27:50.946Z,3.218688
2018-07-04T00:28:03.343Z,3.218688
2018-07-04T00:28:15.737Z,3.218688
2018-07-04T00:28:28.205Z,8.04672
2018-07-04T00:28:40.617Z,8.04672
2018-07-04T00:28:53.036Z,8.04672
2018-07-04T00:29:05.444Z,6.437376
2018-07-04T00:29:17.849Z,6.437376
2018-07-04T00:29:30.254Z,8.04672
2018-07-04T00:29:42.665Z,8.04672
2018-07-04T00:29:55.070Z,8.04672
2018-07-04T00:30:07.472Z,6.437376
2018-07-04T00:30:19.866Z,6.437376
2018-07-04T00:30:32.275Z,8.04672
2018-07-04T00:30:44.682Z,8.04672
2018-07-04T00:30:57.079Z,8.04672
2018-07-04T00:31:09.477Z,1.609344
2018-07-04T00:31:21.879Z,1.609344
2018-07-04T00:31:34.372Z,3.218688
2018-07-04T00:31:46.769Z,3.218688
2018-07-04T00:31:59.164Z,4.828032
2018-07-04T00:32:11.834Z,6.437376
2018-07-04T00:32:24.238Z,6.437376
2018-07-04T00:32:36.637Z,6.437376
2018-07-04T00:32:49.038Z,6.437376
2018-07-04T00:33:01.483Z,6.437376
2018-07-04T00:33:13.901Z,3.218688
2018-07-04T00:33:26.323Z,3.218688
2018-07-04T00:33:38.723Z,4.828032
2018-07-04T00:33:51.115Z,4.828032
2018-07-04T00:34:03.507Z,4.828032
2018-07-04T00:34:15.907Z,6.437376
2018-07-04T00:34:28.355Z,6.437376
2018-07-04T00:34:40.747Z,6.437376
2018-07-04T00:34:53.147Z,6.437376
2018-07-04T00:35:05.541Z,1.609344
2018-07-04T00:35:17.927Z,3.218688
2018-07-04T00:35:30.342Z,6.437376
2018-07-04T00:35:42.739Z,6.437376
2018-07-04T00:35:55.128Z,6.437376
2018-07-04T00:36:07.539Z,1.609344
2018-07-04T00:36:19.941Z,1.609344
2018-07-04T00:36:32.339Z,1.609344
2018-07-04T00:36:44.784Z,3.218688
2018-07-04T00:36:57.204Z,6.437376
2018-07-04T00:37:09.598Z,3.218688
2018-07-04T00:37:21.989Z,3.218688
2018-07-04T00:37:34.383Z,3.218688
2018-07-04T00:37:46.781Z,3.218688
2018-07-04T00:37:59.183Z,3.218688
2018-07-04T00:38:11.596Z,1.609344
2018-07-04T00:38:24.003Z,1.609344
2018-07-04T00:38:36.407Z,1.609344
2018-07-04T00:38:48.811Z,1.609344
2018-07-04T00:39:01.239Z,1.609344
2018-07-04T00:39:13.627Z,1.609344
2018-07-04T00:39:26.103Z,1.609344
2018-07-04T00:39:38.501Z,1.609344
2018-07-04T00:39:50.900Z,1.609344
2018-07-04T00:40:03.302Z,1.609344
2018-07-04T00:40:15.692Z,1.609344
2018-07-04T00:40:28.089Z,1.609344
2018-07-04T00:40:40.489Z,1.609344
2018-07-04T00:40:52.880Z,1.609344
2018-07-04T00:41:05.273Z,3.218688
2018-07-04T00:41:17.683Z,3.218688
2018-07-04T00:41:30.090Z,3.218688
2018-07-04T00:41:42.482Z,3.218688
2018-07-04T00:41:54.915Z,3.218688
2018-07-04T00:42:07.730Z,1.609344
2018-07-04T00:42:20.132Z,1.609344
2018-07-04T00:42:37.203Z,3.218688
2018-07-04T00:42:48.394Z,3.218688
2018-07-04T00:42:59.803Z,3.218688
2018-07-04T00:43:10.475Z,1.609344
2018-07-04T00:43:21.200Z,1.609344
2018-07-04T00:43:31.818Z,1.609344
2018-07-04T00:43:43.348Z,1.609344
2018-07-04T00:43:55.200Z,1.609344
2018-07-04T00:44:09.323Z,0
2018-07-04T00:44:25.834Z,0
2018-07-04T00:44:49.370Z,0
2018-07-04T00:45:26.293Z,0
2018-07-04T00:45:38.027Z,0
2018-07-04T00:45:48.837Z,0
2018-07-04T00:45:59.879Z,0
2018-07-04T00:46:10.498Z,1.609344
2018-07-04T00:46:21.590Z,1.609344
2018-07-04T00:46:33.651Z,1.609344
2018-07-04T00:46:47.256Z,1.609344
2018-07-04T00:47:03.810Z,3.218688
2018-07-04T00:47:27.996Z,3.218688
2018-07-04T00:47:38.681Z,3.218688
2018-07-04T00:47:49.330Z,3.218688
2018-07-04T00:47:59.981Z,3.218688
2018-07-04T00:48:10.837Z,1.609344
2018-07-04T00:48:22.994Z,1.609344
2018-07-04T00:48:36.681Z,1.609344
2018-07-04T00:48:53.437Z,1.609344
2018-07-04T00:49:16.537Z,1.609344
2018-07-04T00:49:52.329Z,1.609344
2018-07-04T00:50:53.657Z,3.218688
2018-07-04T00:52:03.923Z,1.609344
2018-07-04T00:53:14.633Z,1.609344
2018-07-04T00:53:25.644Z,1.609344
2018-07-04T00:53:36.435Z,1.609344
2018-07-04T00:53:46.941Z,1.609344
2018-07-04T00:53:57.858Z,1.609344
2018-07-04T00:54:09.680Z,3.218688
2018-07-04T00:54:22.937Z,3.218688
2018-07-04T00:54:39.385Z,3.218688
2018-07-04T00:55:02.735Z,3.218688
2018-07-04T00:55:39.801Z,1.609344
2018-07-04T00:55:50.397Z,1.609344
2018-07-04T00:56:00.792Z,1.609344
2018-07-04T00:56:11.367Z,1.609344
2018-07-04T00:56:22.585Z,1.609344
2018-07-04T00:56:34.600Z,1.609344
2018-07-04T00:56:48.191Z,1.609344
2018-07-04T00:57:04.631Z,1.609344
2018-07-04T00:57:27.468Z,1.609344
2018-07-04T00:58:03.146Z,3.218688
2018-07-04T00:59:04.737Z,0
2018-07-04T01:00:15.854Z,1.609344
2018-07-04T01:00:26.832Z,1.609344
2018-07-04T01:00:38.279Z,1.609344
2018-07-04T01:00:48.814Z,1.609344
2018-07-04T01:01:00.498Z,1.609344
2018-07-04T01:01:11.037Z,1.609344
2018-07-04T01:01:23.120Z,1.609344
2018-07-04T01:01:33.977Z,1.609344
2018-07-04T01:01:45.194Z,1.609344
2018-07-04T01:01:55.963Z,1.609344
2018-07-04T01:02:06.784Z,1.609344
2018-07-04T01:02:18.507Z,3.218688
2018-07-04T01:02:31.798Z,3.218688
2018-07-04T01:02:48.241Z,4.828032
2018-07-04T01:03:11.145Z,1.609344
2018-07-04T01:03:46.781Z,3.218688
2018-07-04T01:04:48.016Z,3.218688
2018-07-04T01:05:58.394Z,3.218688
2018-07-04T01:07:08.537Z,1.609344
2018-07-04T01:08:18.617Z,1.609344
2018-07-04T01:09:28.807Z,1.609344
2018-07-04T01:10:38.908Z,4.828032
2018-07-04T01:11:49.117Z,6.437376
2018-07-04T01:12:59.314Z,3.218688
2018-07-04T01:14:10.413Z,0
2018-07-04T01:14:21.094Z,0
2018-07-04T01:14:31.943Z,0
2018-07-04T01:14:42.474Z,0
2018-07-04T01:14:54.000Z,0
2018-07-04T01:15:05.740Z,0
2018-07-04T01:15:19.016Z,0
2018-07-04T01:15:36.369Z,0
2018-07-04T01:15:46.953Z,0
2018-07-04T01:15:58.161Z,0
2018-07-04T01:16:08.770Z,0
2018-07-04T01:16:19.844Z,0
2018-07-04T01:16:32.649Z,0
2018-07-04T01:16:43.945Z,0
2018-07-04T01:16:54.625Z,0
2018-07-04T01:17:05.357Z,0
2018-07-04T01:17:16.675Z,0
2018-07-04T01:17:28.479Z,0
2018-07-04T01:17:41.806Z,0
2018-07-04T01:17:59.179Z,0
2018-07-04T01:18:09.890Z,0
2018-07-04T01:18:21.463Z,0
2018-07-04T01:18:33.154Z,0
2018-07-04T01:18:44.549Z,0
2018-07-04T01:18:55.125Z,0
2018-07-04T01:19:06.113Z,0
2018-07-04T01:19:16.639Z,0
2018-07-04T01:19:27.679Z,0
2018-07-04T01:19:39.946Z,0
2018-07-04T01:19:50.343Z,0
2018-07-04T01:20:00.955Z,0
2018-07-04T01:20:11.506Z,0
2018-07-04T01:20:22.360Z,0
2018-07-04T01:20:33.962Z,0
2018-07-04T01:20:47.338Z,0
2018-07-04T01:21:03.826Z,0
2018-07-04T01:21:26.824Z,0
2018-07-04T01:22:02.475Z,0
2018-07-04T01:23:03.722Z,0
2018-07-04T01:24:13.816Z,0
2018-07-04T01:25:23.992Z,0
2018-07-04T01:26:34.094Z,0
2018-07-04T01:27:46.536Z,0
2018-07-04T01:27:58.744Z,1.609344
2018-07-04T01:28:11.465Z,1.609344
2018-07-04T01:28:24.313Z,1.609344
2018-07-04T01:28:36.802Z,3.218688
2018-07-04T01:28:49.864Z,3.218688
2018-07-04T01:29:02.032Z,3.218688
2018-07-04T01:29:14.521Z,1.609344
2018-07-04T01:29:27.610Z,1.609344
2018-07-04T01:29:39.803Z,1.609344
2018-07-04T01:29:52.279Z,1.609344
2018-07-04T01:30:04.903Z,1.609344
2018-07-04T01:30:16.807Z,1.609344
2018-07-04T01:30:29.152Z,1.609344
2018-07-04T01:30:41.485Z,1.609344
2018-07-04T01:30:54.160Z,1.609344
2018-07-04T01:31:06.831Z,0
2018-07-04T01:31:19.010Z,0
2018-07-04T01:31:31.269Z,0
2018-07-04T01:31:42.927Z,0
2018-07-04T01:31:55.542Z,0
2018-07-04T01:32:07.110Z,0
2018-07-04T01:32:19.033Z,0
2018-07-04T01:32:30.599Z,1.609344
2018-07-04T01:32:40.872Z,1.609344
2018-07-04T01:32:51.430Z,1.609344
2018-07-04T01:33:01.832Z,1.609344
2018-07-04T01:33:12.686Z,1.609344
2018-07-04T01:33:24.392Z,1.609344
2018-07-04T01:33:37.610Z,1.609344
2018-07-04T01:33:54.029Z,1.609344
2018-07-04T01:34:18.363Z,1.609344
2018-07-04T01:34:30.027Z,1.609344
2018-07-04T01:34:41.820Z,1.609344
2018-07-04T01:34:53.136Z,1.609344
2018-07-04T01:35:05.727Z,1.609344
2018-07-04T01:35:17.617Z,1.609344
2018-07-04T01:35:30.894Z,1.609344
2018-07-04T01:35:42.671Z,1.609344
2018-07-04T01:35:53.479Z,1.609344
2018-07-04T01:36:06.175Z,1.609344
2018-07-04T01:36:18.244Z,1.609344
2018-07-04T01:36:30.740Z,1.609344
2018-07-04T01:36:43.483Z,1.609344
2018-07-04T01:36:55.318Z,1.609344
2018-07-04T01:37:07.589Z,0
2018-07-04T01:37:19.978Z,1.609344
2018-07-04T01:37:32.202Z,1.609344
2018-07-04T01:37:44.397Z,1.609344
2018-07-04T01:37:55.936Z,1.609344
2018-07-04T01:38:08.526Z,0
2018-07-04T01:38:20.838Z,0
2018-07-04T01:38:33.220Z,0
2018-07-04T01:38:45.342Z,0
2018-07-04T01:38:56.298Z,0
2018-07-04T01:39:08.522Z,0
2018-07-04T01:39:20.867Z,0
2018-07-04T01:39:33.290Z,0
2018-07-04T01:39:45.305Z,0
2018-07-04T01:39:57.006Z,0
2018-07-04T01:40:09.771Z,1.609344
2018-07-04T01:40:22.023Z,1.609344
2018-07-04T01:40:34.728Z,1.609344
2018-07-04T01:40:46.346Z,1.609344
2018-07-04T01:40:57.580Z,1.609344
2018-07-04T01:41:10.252Z,0
2018-07-04T01:41:22.191Z,0
2018-07-04T01:41:34.866Z,0
2018-07-04T01:41:47.212Z,1.609344
2018-07-04T01:41:59.482Z,1.609344
2018-07-04T01:42:12.136Z,0
2018-07-04T01:42:23.746Z,0
2018-07-04T01:42:36.233Z,0
2018-07-04T01:42:48.005Z,0
2018-07-04T01:43:00.306Z,0
2018-07-04T01:43:11.679Z,0
2018-07-04T01:43:23.751Z,0
2018-07-04T01:43:35.823Z,0
2018-07-04T01:43:47.945Z,1.609344
2018-07-04T01:44:00.285Z,1.609344
2018-07-04T01:44:11.688Z,0
2018-07-04T01:44:24.246Z,0
2018-07-04T01:44:36.121Z,0
2018-07-04T01:44:48.588Z,0
2018-07-04T01:45:00.481Z,0
2018-07-04T01:45:12.887Z,0
2018-07-04T01:45:25.114Z,0
2018-07-04T01:45:37.366Z,0
2018-07-04T01:45:49.458Z,0
2018-07-04T01:46:01.129Z,0
2018-07-04T01:46:12.729Z,0
2018-07-04T01:46:25.134Z,0
2018-07-04T01:46:37.269Z,0
2018-07-04T01:46:49.091Z,0
2018-07-04T01:47:01.382Z,0
2018-07-04T01:47:12.321Z,0
2018-07-04T01:47:25.146Z,0
2018-07-04T01:47:37.181Z,0
2018-07-04T01:47:49.966Z,0
2018-07-04T01:48:01.602Z,0
2018-07-04T01:48:12.762Z,0
2018-07-04T01:48:24.679Z,0
2018-07-04T01:48:36.260Z,0
2018-07-04T01:48:48.217Z,0
2018-07-04T01:49:00.300Z,0
2018-07-04T01:49:13.017Z,0
2018-07-04T01:49:25.819Z,0
2018-07-04T01:49:37.554Z,0
2018-07-04T01:49:49.860Z,0
2018-07-04T01:50:02.655Z,0
2018-07-04T01:50:14.529Z,0
2018-07-04T01:50:26.558Z,0
2018-07-04T01:50:38.610Z,0
2018-07-04T01:50:50.793Z,0
2018-07-04T01:51:02.858Z,0
2018-07-04T01:51:15.637Z,0
2018-07-04T01:51:27.353Z,0
2018-07-04T01:51:39.635Z,0
2018-07-04T01:51:51.934Z,1.609344
2018-07-04T01:52:04.948Z,1.609344
2018-07-04T01:52:17.245Z,1.609344
2018-07-04T01:52:30.198Z,3.218688
2018-07-04T01:52:41.857Z,3.218688
2018-07-04T01:52:54.347Z,3.218688
2018-07-04T01:53:06.619Z,1.609344
2018-07-04T01:53:19.239Z,1.609344
2018-07-04T01:53:31.139Z,1.609344
2018-07-04T01:53:43.380Z,1.609344
2018-07-04T01:53:56.028Z,1.609344
2018-07-04T01:54:08.786Z,0
2018-07-04T01:54:21.109Z,0
2018-07-04T01:54:33.009Z,0
2018-07-04T01:54:45.281Z,1.609344
2018-07-04T01:54:58.089Z,1.609344
2018-07-04T01:55:10.166Z,0
2018-07-04T01:55:23.345Z,0
2018-07-04T01:55:36.095Z,0
2018-07-04T01:55:48.637Z,0
2018-07-04T01:56:00.857Z,1.609344
2018-07-04T01:56:13.560Z,1.609344
2018-07-04T01:56:25.804Z,1.609344
2018-07-04T01:56:38.584Z,1.609344
2018-07-04T01:56:50.100Z,1.609344
2018-07-04T01:57:02.846Z,1.609344
2018-07-04T01:57:14.745Z,1.609344
2018-07-04T01:57:27.491Z,1.609344
2018-07-04T01:57:38.944Z,1.609344
2018-07-04T01:57:51.354Z,1.609344
2018-07-04T01:58:03.683Z,1.609344
2018-07-04T01:58:16.604Z,1.609344
2018-07-04T01:58:28.476Z,1.609344
2018-07-04T01:58:41.178Z,1.609344
2018-07-04T01:58:53.473Z,1.609344
2018-07-04T01:59:06.224Z,0
2018-07-04T01:59:18.056Z,1.609344
2018-07-04T01:59:30.765Z,1.609344
2018-07-04T01:59:42.507Z,3.218688
2018-07-04T01:59:55.460Z,3.218688
2018-07-04T02:00:07.630Z,3.218688
2018-07-04T02:00:20.505Z,3.218688
2018-07-04T02:00:32.817Z,3.218688
2018-07-04T02:00:45.073Z,3.218688
2018-07-04T02:00:57.291Z,3.218688
2018-07-04T02:01:09.983Z,1.609344
2018-07-04T02:01:22.178Z,1.609344
2018-07-04T02:01:35.224Z,1.609344
2018-07-04T02:01:47.941Z,1.609344
2018-07-04T02:01:59.578Z,1.609344
2018-07-04T02:02:12.302Z,1.609344
2018-07-04T02:02:24.080Z,4.828032
2018-07-04T02:02:37.179Z,4.828032
2018-07-04T02:02:49.262Z,4.828032
2018-07-04T02:03:01.750Z,4.828032
2018-07-04T02:03:14.203Z,3.218688
2018-07-04T02:03:26.412Z,3.218688
2018-07-04T02:03:39.045Z,3.218688
2018-07-04T02:03:51.886Z,3.218688
2018-07-04T02:04:04.051Z,3.218688
2018-07-04T02:04:16.694Z,1.609344
2018-07-04T02:04:28.699Z,1.609344
2018-07-04T02:04:41.342Z,1.609344
2018-07-04T02:04:53.105Z,3.218688
2018-07-04T02:05:05.587Z,3.218688
2018-07-04T02:05:17.766Z,3.218688
2018-07-04T02:05:30.347Z,3.218688
2018-07-04T02:05:42.764Z,3.218688
2018-07-04T02:05:54.731Z,3.218688
2018-07-04T02:06:07.591Z,0
2018-07-04T02:06:19.137Z,1.609344
2018-07-04T02:06:31.654Z,1.609344
2018-07-04T02:06:43.938Z,1.609344
2018-07-04T02:06:55.864Z,1.609344
2018-07-04T02:07:07.962Z,1.609344
2018-07-04T02:07:20.514Z,1.609344
2018-07-04T02:07:32.656Z,1.609344
2018-07-04T02:07:44.700Z,1.609344
2018-07-04T02:07:56.592Z,1.609344
2018-07-04T02:08:08.777Z,1.609344
2018-07-04T02:08:21.154Z,1.609344
2018-07-04T02:08:33.411Z,1.609344
2018-07-04T02:08:45.558Z,1.609344
2018-07-04T02:08:57.144Z,1.609344
2018-07-04T02:09:09.740Z,1.609344
2018-07-04T02:09:21.844Z,1.609344
2018-07-04T02:09:34.284Z,1.609344
2018-07-04T02:09:46.547Z,1.609344
2018-07-04T02:09:58.724Z,1.609344
2018-07-04T02:10:10.806Z,0
2018-07-04T02:10:22.884Z,0
2018-07-04T02:10:35.031Z,0
2018-07-04T02:10:47.194Z,0
2018-07-04T02:10:59.199Z,1.609344
2018-07-04T02:11:11.819Z,1.609344
2018-07-04T02:11:24.309Z,1.609344
2018-07-04T02:11:36.126Z,1.609344
2018-07-04T02:11:48.657Z,1.609344
2018-07-04T02:12:00.525Z,1.609344
2018-07-04T02:12:13.031Z,0
2018-07-04T02:12:25.741Z,0
2018-07-04T02:12:38.357Z,0
2018-07-04T02:12:50.310Z,0
2018-07-04T02:13:02.689Z,0
2018-07-04T02:13:15.095Z,0
2018-07-04T02:13:27.364Z,0
2018-07-04T02:13:39.962Z,0
2018-07-04T02:13:52.568Z,0
2018-07-04T02:14:05.371Z,0
2018-07-04T02:14:17.925Z,0
2018-07-04T02:14:30.348Z,0
2018-07-04T02:14:42.728Z,0
2018-07-04T02:14:55.718Z,0
2018-07-04T02:15:07.390Z,0
2018-07-04T02:15:20.894Z,0
2018-07-04T02:15:33.526Z,0
2018-07-04T02:15:46.407Z,0
2018-07-04T02:15:58.619Z,0
2018-07-04T02:16:10.803Z,0
2018-07-04T02:16:23.542Z,0
2018-07-04T02:16:36.527Z,0
2018-07-04T02:16:49.360Z,0
2018-07-04T02:17:01.911Z,0
2018-07-04T02:17:14.560Z,0
2018-07-04T02:17:27.061Z,0
2018-07-04T02:17:39.712Z,1.609344
2018-07-04T02:17:52.208Z,1.609344
2018-07-04T02:18:05.200Z,0
2018-07-04T02:18:17.870Z,0
2018-07-04T02:18:30.475Z,0
2018-07-04T02:18:42.913Z,0
2018-07-04T02:18:55.162Z,0
2018-07-04T02:19:07.687Z,0
2018-07-04T02:19:19.978Z,0
2018-07-04T02:19:32.765Z,0
2018-07-04T02:19:44.770Z,0
2018-07-04T02:19:57.561Z,0
2018-07-04T02:20:10.157Z,0
2018-07-04T02:20:22.948Z,0
2018-07-04T02:20:35.267Z,0
2018-07-04T02:20:47.950Z,0
2018-07-04T02:21:00.276Z,0
2018-07-04T02:21:13.661Z,0
2018-07-04T02:21:26.108Z,0
2018-07-04T02:21:38.703Z,0
2018-07-04T02:21:50.673Z,0
2018-07-04T02:22:03.495Z,0
2018-07-04T02:22:15.953Z,0
2018-07-04T02:22:28.797Z,0
2018-07-04T02:22:41.863Z,0
2018-07-04T02:22:54.836Z,0
2018-07-04T02:23:07.192Z,0
2018-07-04T02:23:18.838Z,0
2018-07-04T02:23:31.494Z,0
2018-07-04T02:23:43.767Z,0
2018-07-04T02:23:56.309Z,0
2018-07-04T02:24:09.057Z,0
2018-07-04T02:24:21.969Z,0
2018-07-04T02:24:35.123Z,0
2018-07-04T02:24:47.465Z,0
2018-07-04T02:25:00.364Z,0
2018-07-04T02:25:12.478Z,0
2018-07-04T02:25:25.349Z,0
2018-07-04T02:25:38.003Z,0
2018-07-04T02:25:50.945Z,0
2018-07-04T02:26:03.719Z,0
2018-07-04T02:26:15.684Z,0
2018-07-04T02:26:28.302Z,0
2018-07-04T02:26:40.757Z,0
2018-07-04T02:26:53.023Z,0
2018-07-04T02:27:05.907Z,0
2018-07-04T02:27:17.987Z,0
2018-07-04T02:27:30.492Z,0
2018-07-04T02:27:41.722Z,0
2018-07-04T02:27:52.383Z,0
2018-07-04T02:28:02.843Z,0
2018-07-04T02:28:13.277Z,1.609344
2018-07-04T02:28:24.098Z,1.609344
2018-07-04T02:28:35.806Z,1.609344
2018-07-04T02:28:48.979Z,1.609344
2018-07-04T02:29:05.571Z,0
2018-07-04T02:29:28.378Z,0
2018-07-04T02:30:03.974Z,0
2018-07-04T02:31:05.206Z,0
2018-07-04T02:32:15.442Z,0
2018-07-04T02:33:26.203Z,0
2018-07-04T02:34:36.214Z,0
2018-07-04T02:35:46.331Z,0
2018-07-04T02:36:56.334Z,1.609344
2018-07-04T02:38:06.986Z,0
2018-07-04T02:38:17.457Z,0
2018-07-04T02:38:27.975Z,0
2018-07-04T02:38:38.540Z,0
2018-07-04T02:38:49.435Z,0
2018-07-04T02:39:01.005Z,0
2018-07-04T02:39:14.236Z,0
2018-07-04T02:39:30.644Z,0
2018-07-04T02:39:53.478Z,0
2018-07-04T02:40:29.178Z,1.609344
2018-07-04T02:41:31.230Z,0
2018-07-04T02:41:41.785Z,0
2018-07-04T02:41:52.190Z,0
2018-07-04T02:42:02.863Z,0
2018-07-04T02:42:13.825Z,0
2018-07-04T02:42:25.423Z,0
2018-07-04T02:42:39.009Z,0
2018-07-04T02:42:55.472Z,0
2018-07-04T02:43:18.323Z,1.609344
2018-07-04T02:43:54.324Z,1.609344
2018-07-04T02:44:56.144Z,1.609344
2018-07-04T02:45:09.370Z,1.609344
2018-07-04T02:45:20.053Z,1.609344
2018-07-04T02:45:30.522Z,1.609344
2018-07-04T02:45:41.841Z,1.609344
2018-07-04T02:45:52.423Z,1.609344
2018-07-04T02:46:03.630Z,1.609344
2018-07-04T02:46:14.286Z,1.609344
2018-07-04T02:46:25.043Z,3.218688
2018-07-04T02:46:35.835Z,3.218688
2018-07-04T02:46:47.512Z,3.218688
2018-07-04T02:46:58.033Z,3.218688
2018-07-04T02:47:08.402Z,0
2018-07-04T02:47:20.565Z,1.609344
2018-07-04T02:47:30.922Z,1.609344
2018-07-04T02:47:42.628Z,1.609344
2018-07-04T02:47:54.043Z,1.609344
2018-07-04T02:48:05.279Z,0
2018-07-04T02:48:16.907Z,0
2018-07-04T02:48:28.123Z,1.609344
2018-07-04T02:48:39.867Z,1.609344
2018-07-04T02:48:50.970Z,1.609344
2018-07-04T02:49:01.800Z,1.609344
2018-07-04T02:49:13.014Z,0
2018-07-04T02:49:24.404Z,0
2018-07-04T02:49:36.030Z,0
2018-07-04T02:49:49.991Z,0
2018-07-04T02:50:00.400Z,0
2018-07-04T02:50:11.954Z,0
2018-07-04T02:50:23.249Z,0
2018-07-04T02:50:35.588Z,1.609344
2018-07-04T02:50:48.169Z,1.609344
2018-07-04T02:50:59.116Z,1.609344
2018-07-04T02:51:12.083Z,0
2018-07-04T02:51:24.416Z,0
2018-07-04T02:51:37.310Z,0
2018-07-04T02:51:49.266Z,0
2018-07-04T02:52:01.456Z,0
2018-07-04T02:52:11.931Z,1.609344
2018-07-04T02:52:22.391Z,1.609344
2018-07-04T02:52:32.906Z,1.609344
2018-07-04T02:52:43.748Z,1.609344
2018-07-04T02:52:55.488Z,1.609344
2018-07-04T02:53:09.091Z,0
2018-07-04T02:53:25.501Z,0
2018-07-04T02:53:48.764Z,0
2018-07-04T02:54:24.875Z,0
2018-07-04T02:55:26.672Z,1.609344
2018-07-04T02:56:37.150Z,0
2018-07-04T02:57:49.470Z,0
2018-07-04T02:58:01.652Z,0
2018-07-04T02:58:13.295Z,0
2018-07-04T02:58:26.136Z,0
2018-07-04T02:58:38.581Z,0
2018-07-04T02:58:50.285Z,0
2018-07-04T02:59:02.917Z,0
2018-07-04T02:59:15.171Z,0
2018-07-04T02:59:26.012Z,0
2018-07-04T02:59:38.982Z,0
2018-07-04T02:59:51.631Z,0
2018-07-04T03:00:04.788Z,0
2018-07-04T03:00:17.412Z,0
2018-07-04T03:00:30.156Z,0
2018-07-04T03:00:42.993Z,0
2018-07-04T03:00:55.502Z,0
2018-07-04T03:01:08.238Z,0
2018-07-04T03:01:20.639Z,0
2018-07-04T03:01:33.423Z,0
2018-07-04T03:01:45.524Z,0
2018-07-04T03:01:58.536Z,0
2018-07-04T03:02:10.997Z,0
2018-07-04T03:02:23.959Z,0
2018-07-04T03:02:34.692Z,0
2018-07-04T03:02:45.252Z,0
2018-07-04T03:02:55.890Z,0
2018-07-04T03:03:06.840Z,0
2018-07-04T03:03:18.489Z,0
2018-07-04T03:03:31.699Z,0
2018-07-04T03:03:48.168Z,0
2018-07-04T03:04:10.994Z,0
2018-07-04T03:04:48.573Z,0
2018-07-04T03:05:00.553Z,0
2018-07-04T03:05:12.776Z,0
2018-07-04T03:05:24.993Z,0
2018-07-04T03:05:36.979Z,0
2018-07-04T03:05:49.164Z,0
2018-07-04T03:06:01.386Z,0
2018-07-04T03:06:13.324Z,0
2018-07-04T03:06:25.710Z,0
2018-07-04T03:06:37.813Z,0
2018-07-04T03:06:50.053Z,0
2018-07-04T03:07:02.498Z,0
2018-07-04T03:07:14.896Z,0
2018-07-04T03:07:27.646Z,0
2018-07-04T03:07:38.860Z,0
2018-07-04T03:07:50.920Z,0
2018-07-04T03:08:02.948Z,0
2018-07-04T03:08:15.348Z,0
2018-07-04T03:08:27.357Z,0
2018-07-04T03:08:38.761Z,0
2018-07-04T03:08:51.392Z,0
2018-07-04T03:09:03.935Z,0
2018-07-04T03:09:16.990Z,0
2018-07-04T03:09:28.977Z,0
2018-07-04T03:09:41.962Z,0
2018-07-04T03:09:53.804Z,0
2018-07-04T03:10:06.347Z,0
2018-07-04T03:10:19.335Z,0
2018-07-04T03:10:31.881Z,0
2018-07-04T03:10:43.680Z,0
2018-07-04T03:10:56.183Z,0
2018-07-04T03:11:08.350Z,0
2018-07-04T03:11:19.837Z,0
2018-07-04T03:11:31.927Z,0
2018-07-04T03:11:43.468Z,0
2018-07-04T03:11:55.955Z,0
2018-07-04T03:12:08.070Z,0
2018-07-04T03:12:20.472Z,0
2018-07-04T03:12:32.769Z,0
2018-07-04T03:12:43.123Z,0
2018-07-04T03:12:53.656Z,0
2018-07-04T03:13:04.089Z,0
2018-07-04T03:13:15.018Z,0